Terminal Aerodrome Forecast
Issued by NWS

Home | Current Version | Previous Version | Text Only | Print | Product List | Glossary On
Versions: 1 2 3 4 5 6 7 8 9 10 11 12 13 14
000
FTUS42 KTBW 270500
TAFPIE
TAF
KPIE 270533Z 2706/2806 32010KT P6SM FEW040
     FM271700 29016G26KT P6SM FEW040
     FM280200 30013G20KT P6SM FEW030=

USA.gov is the U.S. government's official web portal to all federal, state and local government web resources and services.